Flight Track Log - Related Links

Times and Time Zones

All times are in EDT time to prevent confusion due to time zone crossing. See the EJA982 flight status page for this flight to view local times or setup timezone preferences in your user account.

Time Position Orientation Groundspeed Altitude Reporting Facility
EDT Latitude Longitude Course Direction KTS MPH feet Rate Location/Type
Sat 06:47:53 PM 38.0669 -84.5717 51° Northeast 172 198 2,900  Level Cleveland Center
Sat 06:48:25 PM 38.0942 -84.5286 51° Northeast 227 261 5,000 2,903 Climbing Indianapolis Center
Sat 06:49:26 PM 38.1506 -84.4500 48° Northeast 273 314 7,400 2,557 Climbing Indianapolis Center
Sat 06:50:27 PM 38.2306 -84.4150 19° North 307 353 10,200 1,918 Climbing Indianapolis Center
Sat 06:51:28 PM 38.3183 -84.3689 22° Northeast 350 403 11,300 1,525 Climbing Indianapolis Center
Sat 06:52:29 PM 38.4117 -84.3061 28° Northeast 376 433 13,300 1,918 Climbing Indianapolis Center
Sat 06:53:30 PM 38.5069 -84.2381 29° Northeast 385 443 15,200 1,574 Climbing Indianapolis Center
Sat 06:54:31 PM 38.6064 -84.1689 29° Northeast 399 459 16,500 1,426 Climbing Indianapolis Center
Sat 06:55:32 PM 38.7189 -84.0897 29° Northeast 421 484 18,100 1,475 Climbing Indianapolis Center
Sat 06:56:33 PM 38.8233 -84.0167 29° Northeast 426 490 19,500 1,230 Climbing Indianapolis Center
Sat 06:57:34 PM 38.9292 -83.9425 29° Northeast 433 498 20,600 934 Climbing Indianapolis Center
Sat 06:58:35 PM 39.0386 -83.8678 28° Northeast 443 510 21,400 934 Climbing Indianapolis Center
Sat 06:59:36 PM 39.1500 -83.7867 29° Northeast 458 527 22,500 934 Climbing Indianapolis Center
Sat 07:00:37 PM 39.2644 -83.7067 28° Northeast 467 537 23,300 934 Climbing Indianapolis Center
Sat 07:01:38 PM 39.3794 -83.6239 29° Northeast 473 544 24,400 1,082 Climbing Indianapolis Center
Sat 07:02:39 PM 39.4953 -83.5414 29° Northeast 477 549 25,500 984 Climbing Indianapolis Center
Sat 07:03:40 PM 39.6203 -83.4508 29° Northeast 487 560 26,400 984 Climbing Indianapolis Center
Sat 07:04:41 PM 39.7536 -83.3533 29° Northeast 493 567 27,500 984 Climbing Indianapolis Center
Sat 07:05:42 PM 39.8728 -83.2675 29° Northeast 503 579 28,400 843 Climbing Indianapolis Center
Sat 07:06:42 PM 40.0075 -83.1708 29° Northeast 506 582 29,200 793 Climbing Indianapolis Center
Sat 07:07:43 PM 40.1175 -83.0900 29° Northeast 510 587 30,000 836 Climbing Indianapolis Center
Sat 07:08:44 PM 40.2431 -82.9975 29° Northeast 517 595 30,900 1,180 Climbing Indianapolis Center
Sat 07:09:45 PM 40.3678 -82.9061 29° Northeast 515 593 32,400 1,623 Climbing Indianapolis Center
Sat 07:10:46 PM 40.5125 -82.7975 30° Northeast 515 593 34,200 1,785 Climbing Indianapolis Center
Sat 07:11:46 PM 40.6361 -82.7064 29° Northeast 508 585 36,000 1,636 Climbing Indianapolis Center
Sat 07:12:47 PM 40.7594 -82.6133 30° Northeast 505 581 37,500 1,574 Climbing Indianapolis Center
Sat 07:13:48 PM 40.8483 -82.4708 50° Northeast 509 586 39,200 1,377 Climbing Indianapolis Center
Sat 07:14:49 PM 40.8717 -82.2925 80° East 494 568 40,300 981 Climbing Indianapolis Center
Sat 07:15:32 PM 40.8833 -82.1678 83° East 498 573 40,900 404 Climbing Cleveland Center
Sat 07:16:33 PM 40.9011 -81.9831 83° East 505 581 41,000 49 Climbing Cleveland Center
Sat 07:17:34 PM 40.9192 -81.7892 83° East 524 603 41,000  Level Cleveland Center
Sat 07:18:35 PM 40.9383 -81.5919 83° East 539 620 41,000  Level Cleveland Center
Sat 07:19:36 PM 40.9569 -81.3925 83° East 545 627 41,000  Level Cleveland Center
Sat 07:20:37 PM 40.9750 -81.1928 83° East 546 628 41,000  Level Cleveland Center
Sat 07:21:37 PM 40.9936 -80.9811 83° East 548 631 41,000  Level Cleveland Center
Sat 07:22:38 PM 41.0119 -80.7808 83° East 546 628 41,000  Level Cleveland Center
Sat 07:23:39 PM 41.0303 -80.5800 83° East 547 629 41,000  Level Cleveland Center
Sat 07:24:39 PM 41.0481 -80.3781 83° East 549 632 41,000  Level Cleveland Center
Sat 07:25:41 PM 41.0639 -80.1786 84° East 544 626 41,000  Level Cleveland Center
Sat 07:26:41 PM 41.0803 -79.9803 84° East 540 621 41,000 -248 Level Cleveland Center
Sat 07:27:42 PM 41.0967 -79.7814 84° East 540 621 40,500 -843 Descending Cleveland Center
Sat 07:28:42 PM 41.1119 -79.5836 84° East 538 619 39,300 -1,339 Descending Cleveland Center
Sat 07:29:43 PM 41.1278 -79.3844 84° East 543 625 37,800 -1,475 Descending Cleveland Center
Sat 07:30:44 PM 41.1450 -79.1650 84° East 559 643 36,300 -1,488 Descending Cleveland Center
Sat 07:31:44 PM 41.1597 -78.9556 85° East 569 655 34,800 -1,438 Descending Cleveland Center
Sat 07:32:45 PM 41.1747 -78.7597 84° East 570 656 33,400 -885 Descending Cleveland Center
Sat 07:33:46 PM 41.1900 -78.5508 84° East 570 656 33,000 -197 Descending Cleveland Center
Sat 07:34:47 PM 41.2028 -78.3397 85° East 573 659 33,000  Level Cleveland Center
Sat 07:35:47 PM 41.2103 -78.1058 87° East 572 658 33,000  Level Cleveland Center
Sat 07:36:48 PM 41.1858 -77.8986 99° East 572 658 33,000 -632 Level Cleveland Center
Sat 07:38:00 PM 41.1550 -77.6550 99° East 563 648 31,600 -1,318 Descending New York Center
Sat 07:39:00 PM 41.1292 -77.4514 99° East 563 648 30,100 -1,500 Descending New York Center
Sat 07:40:00 PM 41.0958 -77.2250 101° East 563 648 28,600 -1,700 Descending New York Center
Sat 07:41:00 PM 41.0692 -77.0269 100° East 558 642 26,700 -2,100 Descending New York Center
Sat 07:42:00 PM 41.0550 -76.8550 96° East 542 624 24,400 -2,400 Descending New York Center
Sat 07:43:00 PM 41.0603 -76.6711 88° East 515 593 21,900 -2,500 Descending New York Center
Sat 07:44:00 PM 41.0542 -76.4969 93° East 490 564 19,400 -1,950 Descending New York Center
Sat 07:45:00 PM 40.9803 -76.3453 123° Southeast 435 501 18,000 -1,000 Descending New York Center
Sat 07:46:00 PM 40.9169 -76.2247 125° Southeast 435 501 17,400 -1,150 Descending New York Center
Sat 07:47:00 PM 40.8767 -76.0567 108° East 435 501 15,700 -1,550 Descending New York Center
Sat 07:48:00 PM 40.8378 -75.9000 108° East 446 513 14,300 -1,450 Descending New York Center
Sat 07:49:00 PM 40.7986 -75.7464 109° East 446 513 12,800 -1,450 Descending New York Center
Sat 07:50:00 PM 40.7628 -75.6014 108° East 431 496 11,400 -1,250 Descending New York Center
Sat 07:51:00 PM 40.7328 -75.4706 107° East 426 490 10,300 -700 Descending New York Center
Sat 07:52:00 PM 40.7025 -75.3342 106° East 403 464 10,000 -150 Descending New York Center
Sat 07:53:00 PM 40.6744 -75.1956 105° East 362 417 10,000  Level New York Center
Sat 07:54:00 PM 40.6261 -75.0967 123° Southeast 356 410 10,000  Level New York Center
Sat 07:55:00 PM 40.5653 -74.9919 127° Southeast 361 415 10,000  Level New York Center
Sat 07:56:00 PM 40.5239 -74.8664 113° Southeast 366 421 10,000  Level New York Center
Sat 07:57:00 PM 40.4867 -74.7386 111° Southeast 373 429 10,000  Level New York Center
Sat 07:58:00 PM 40.4556 -74.6086 107° East 373 429 10,000  Level New York Center
Sat 07:59:00 PM 40.4247 -74.4625 105° East 378 435 10,000  Level New York Center
Sat 08:00:01 PM 40.4242 -74.3453 90° East 358 412 10,000 -900 Level New York Center
Sat 08:01:00 PM 40.4825 -74.2719 44° Northeast 280 322 8,200 -1,714 Descending New York Center
Sat 08:02:00 PM 40.5469 -74.2069 37° Northeast 280 322 6,600 -1,550 Descending New York Center
Sat 08:03:00 PM 40.5767 -74.1236 65° Northeast 272 313 5,100 -1,300 Descending New York Center
Sat 08:04:00 PM 40.6386 -74.0611 37° Northeast 251 289 4,000 -550 Descending New York Center
Sat 08:05:00 PM 40.6914 -74.0361 20° North 227 261 4,000  Level New York Center
Sat 08:06:00 PM 40.7589 -74.0119 15° North 222 255 4,000 -350 Level New York Center
Sat 08:07:00 PM 40.8017 -73.9731 35° Northeast 217 250 3,300 -500 Descending New York Center
Sat 08:08:00 PM 40.8592 -73.9181 36° Northeast 223 257 3,000 -150 Descending New York Center
Sat 08:09:00 PM 40.9000 -73.8733 40° Northeast 223 257 3,000 42 Level New York Center
Sat 08:10:24 PM 40.9333 -73.8000 59° Northeast 205 236 3,100 -292 Climbing New York TRACON
Sat 08:11:24 PM 40.8833 -73.7833 166° South 188 216 2,300 -850 Descending New York TRACON
Sat 08:12:24 PM 40.8500 -73.8167 217° Southwest 162 186 1,400 -800 Descending New York TRACON
Sat 08:13:24 PM 40.8167 -73.8500 217° Southwest 137 158 700 -700 Descending New York TRACON
Sat 08:15:00 PM 40.7772 -73.8726 159° South  Level Estimated
Sat 08:22:00 PM 40.7772 -73.8726 159° South  Level Estimated
Sat 08:23:00 PM 40.7772 -73.8726 159° South  Level Estimated

Login

Don't have an account? Register now (free) for customized features, flight alerts, and more!